PDT,Max TemperatureF,Mean TemperatureF,Min TemperatureF,Max Dew PointF,MeanDew PointF,Min DewpointF,Max Humidity, Mean Humidity, Min Humidity, Max Sea Level PressureIn, Mean Sea Level PressureIn, Min Sea Level PressureIn, Max VisibilityMiles, Mean VisibilityMiles, Min VisibilityMiles, Max Wind SpeedMPH, Mean Wind SpeedMPH, Max Gust SpeedMPH,PrecipitationIn, CloudCover, Events, WindDirDegrees
2013-3-1,66,50,35,41,38,30,100,72,26,30.51,30.41,30.30,10,10,2,5,1,,0.00,3,,187
2013-3-2,57,44,32,45,37,32,100,77,51,30.33,30.21,30.11,10,10,10,5,1,,0.00,2,,27
2013-3-3,62,48,35,41,37,32,93,71,32,30.11,30.06,29.99,10,9,5,8,1,,0.00,3,,232
2013-3-4,62,46,30,41,36,28,100,76,42,30.13,30.05,29.96,10,7,0,7,1,,0.00,3,,161
2013-3-5,48,42,37,39,36,30,100,86,50,29.96,29.84,29.62,10,8,3,13,1,16,0.63,7,,37
2013-3-6,44,36,28,36,33,28,100,87,61,29.98,29.83,29.61,10,8,3,9,4,20,0.33,7,,219
2013-3-7,50,39,28,36,29,27,100,82,40,29.98,29.94,29.89,10,7,0,12,1,,0.00,5,,30
2013-3-8,53,40,26,34,29,25,100,79,33,30.10,29.94,29.87,10,8,0,12,1,20,0.00,4,,309
2013-3-9,62,44,26,34,29,25,100,73,27,30.42,30.30,30.11,10,9,0,7,1,,0.00,2,,310
2013-3-10,66,46,26,36,29,18,100,66,15,30.46,30.38,30.28,10,10,5,7,1,,0.00,0,,229
2013-3-11,68,49,30,43,35,28,100,68,30,30.36,30.26,30.14,10,10,7,9,1,,0.00,0,,249
2013-3-12,68,50,32,45,38,32,100,72,35,30.24,30.19,30.11,10,9,0,6,1,,0.00,1,,286
2013-3-13,71,52,33,43,38,32,100,70,23,30.26,30.20,30.13,10,9,0,6,1,,0.00,1,,358
2013-3-14,66,52,39,45,39,34,93,71,37,30.22,30.18,30.15,10,10,3,9,1,,0.00,0,,227
2013-3-15,68,52,37,41,37,32,93,67,28,30.21,30.16,30.09,10,10,10,13,2,20,0.00,0,,232
2013-3-16,62,47,32,37,34,28,100,65,27,30.17,30.12,30.05,10,10,7,17,4,30,0.00,0,,212
2013-3-17,62,47,32,32,29,25,93,59,24,30.18,30.12,30.06,10,10,8,15,6,21,0.00,1,,260
2013-3-18,62,45,28,36,29,16,93,61,16,30.18,30.10,30.02,10,10,7,7,1,,0.00,1,,237
2013-3-19,57,50,42,48,41,36,100,79,47,30.10,30.06,29.98,10,8,2,5,0,,0.13,8,,10
2013-3-20,55,47,39,46,42,32,100,82,57,30.10,30.00,29.95,10,8,2,13,3,24,0.44,6,,222
2013-3-21,55,42,28,34,29,27,100,73,35,30.20,30.15,30.10,10,10,5,9,2,,0.00,0,,245
2013-3-22,57,40,24,30,24,18,100,65,23,30.19,30.15,30.10,10,9,0,9,1,,0.00,1,,264
2013-3-23,62,43,24,34,27,12,93,62,21,30.23,30.14,30.04,10,10,6,12,1,20,0.00,0,,242
2013-3-24,68,49,30,36,32,25,100,62,21,30.14,30.06,29.95,10,10,7,10,2,16,0.00,0,,259
2013-3-25,66,49,32,45,35,25,100,70,25,30.02,29.96,29.86,10,10,5,9,1,18,0.05,3,,193
2013-3-26,59,48,37,46,40,36,100,77,44,29.98,29.95,29.91,10,8,0,9,1,16,0.00,6,,214
2013-3-27,62,53,44,46,44,41,100,78,51,29.97,29.94,29.91,10,10,5,5,1,,0.00,7,,73
2013-3-28,59,52,46,46,43,39,93,74,51,30.15,30.05,29.97,10,10,9,9,2,,0.00,8,,45
2013-3-29,71,55,39,46,40,36,100,68,27,30.19,30.14,30.07,10,10,4,9,1,,0.00,3,,79
2013-3-30,71,53,35,52,40,34,94,67,29,30.13,30.07,29.99,10,10,6,6,1,,0.09,2,,53
2013-3-31,55,50,46,50,47,45,100,91,72,30.08,30.04,30.01,10,8,4,8,2,,0.56,8,,39